Главная страница
METAR-TAF:

METAR-TAF

Аэропорты :

Кабул, Афганистан

широта: 34-38N, долгота: 069-12E, высота над уровнем моря: 1789 м

Текущие метеонаблюдения

Эта сводка был подготовлена 21 минут назад, в 09:50 UTC
Ветер 4 Узел от северо-западный
Температура 18°C
Влажность 28%
Давление 1022 hPa
Видимость 10 км и более
Нет облачности ниже 1500 м, и нет кучево-дождевой облачности

METAR: OAKB 260950Z 32004KT CAVOK 18/M01 Q1022 NOSIG RMK A3020 BLU BLU

Время: 14:41 (10:11 UTC)

Прогноз

Эта сводка был подготовлена 5 часа и 6 минут назад, в 05:05 UTC
Прогноз действительный с 26-го 06 UTC до 27-го 06 UTC
Ветер 2 Узел переменных направлений
Видимость 10 км и более
Нет облачности ниже 1500 м, и нет кучево-дождевой облачности
изменения
С 26-го 18 UTC до 26-го 20 UTC
Отдельные облака на высоте 9000 фута

TAF: OAKB 260505Z 2606/2706 VRB02KT CAVOK BECMG 2618/2620 SCT090

Метеонаблюдения и прогнозы для более 4000 аэропортов (сводки METAR и TAF).

Имеющиеся станции представлены на карте желтыми и красными точками.

Чтобы увидеть название станции, наведите на нее мышь.

Затем щелкните, чтобы увидеть метеонаблюдения и метеопрогнозы.

Управление картой: чтобы увеличить масштаб, щелкните зеленые кнопки с черным крестиком; чтобы уменьшить масштаб, щелкните зеленую кнопку с тире; для просмотра соседних карт щелкайте зеленые стрелки.


METAR-TAF: